createdAt,value
2022-11-08T00:04:25.027Z,5.80
2022-11-08T00:09:48.414Z,5.80
2022-11-08T00:14:51.943Z,5.80
2022-11-08T00:19:55.911Z,5.80
2022-11-08T00:24:59.098Z,5.70
2022-11-08T00:30:02.118Z,5.60
2022-11-08T00:35:06.330Z,5.60
2022-11-08T00:40:10.233Z,5.50
2022-11-08T00:45:14.068Z,5.50
2022-11-08T00:50:16.925Z,5.50
2022-11-08T00:55:20.048Z,5.50
2022-11-08T01:00:23.301Z,5.40
2022-11-08T01:05:26.151Z,5.40
2022-11-08T01:10:29.037Z,5.30
2022-11-08T01:15:40.789Z,5.30
2022-11-08T01:20:46.339Z,5.30
2022-11-08T01:25:49.963Z,5.20
2022-11-08T01:30:52.647Z,5.20
2022-11-08T01:35:55.524Z,5.20
2022-11-08T01:40:58.402Z,5.10
2022-11-08T01:46:13.123Z,5.10
2022-11-08T01:51:21.002Z,5.00
2022-11-08T01:56:24.132Z,4.90
2022-11-08T02:01:27.116Z,4.90
2022-11-08T02:06:32.228Z,4.80
2022-11-08T02:11:36.790Z,4.80
2022-11-08T02:16:39.773Z,4.80
2022-11-08T02:21:58.303Z,4.80
2022-11-08T02:27:02.034Z,4.90
2022-11-08T02:32:06.511Z,4.90
2022-11-08T02:37:10.925Z,5.00
2022-11-08T02:42:19.554Z,5.00
2022-11-08T02:47:24.156Z,5.00
2022-11-08T02:52:27.145Z,5.10
2022-11-08T02:57:30.143Z,5.10
2022-11-08T03:02:33.109Z,5.10
2022-11-08T03:07:36.164Z,5.20
2022-11-08T03:12:40.016Z,5.20
2022-11-08T03:17:42.904Z,5.30
2022-11-08T03:22:46.533Z,5.30
2022-11-08T03:27:49.373Z,5.30
2022-11-08T03:32:53.646Z,5.40
2022-11-08T03:37:57.643Z,5.40
2022-11-08T03:43:00.659Z,5.50
2022-11-08T03:48:04.097Z,5.50
2022-11-08T03:53:07.036Z,5.50
2022-11-08T03:58:09.936Z,5.50
2022-11-08T04:03:12.813Z,5.50
2022-11-08T04:08:15.900Z,5.60
2022-11-08T04:13:37.857Z,5.60
2022-11-08T04:18:59.125Z,5.60
2022-11-08T04:24:02.161Z,5.60
2022-11-08T04:29:05.028Z,5.70
2022-11-08T04:34:08.279Z,5.60
2022-11-08T04:39:11.268Z,5.60
2022-11-08T04:44:15.658Z,5.60
2022-11-08T04:49:18.768Z,5.60
2022-11-08T04:54:21.797Z,5.60
2022-11-08T04:59:24.867Z,5.70
2022-11-08T05:04:27.673Z,5.70
2022-11-08T05:09:30.534Z,5.70
2022-11-08T05:14:33.532Z,5.70
2022-11-08T05:19:54.768Z,5.70
2022-11-08T05:24:57.602Z,5.70
2022-11-08T05:30:00.627Z,5.70
2022-11-08T05:35:03.861Z,5.70
2022-11-08T05:40:07.966Z,5.70
2022-11-08T05:45:10.980Z,5.80
2022-11-08T05:50:19.260Z,5.80
2022-11-08T05:55:22.498Z,5.80
2022-11-08T06:00:25.451Z,5.70
2022-11-08T06:05:28.282Z,5.70
2022-11-08T06:10:31.170Z,5.70
2022-11-08T06:15:35.049Z,5.70
2022-11-08T06:20:37.789Z,5.70
2022-11-08T06:25:43.875Z,5.80
2022-11-08T06:30:49.519Z,5.80
2022-11-08T06:35:52.655Z,5.80
2022-11-08T06:40:59.320Z,5.90
2022-11-08T06:46:02.637Z,5.90
2022-11-08T06:51:05.853Z,6.00
2022-11-08T06:56:10.006Z,6.00
2022-11-08T07:01:13.795Z,6.00
2022-11-08T07:06:16.728Z,6.00
2022-11-08T07:11:19.569Z,6.10
2022-11-08T07:16:22.390Z,6.20
2022-11-08T07:21:25.289Z,6.20
2022-11-08T07:26:28.145Z,6.10
2022-11-08T07:31:30.974Z,6.20
2022-11-08T07:36:33.864Z,6.30
2022-11-08T07:41:36.655Z,6.40
2022-11-08T07:46:39.508Z,6.50
2022-11-08T07:51:42.463Z,6.60
2022-11-08T07:56:45.338Z,6.60
2022-11-08T08:01:48.278Z,6.60
2022-11-08T08:06:51.325Z,6.60
2022-11-08T08:11:54.185Z,6.60
2022-11-08T08:16:57.875Z,6.60
2022-11-08T08:22:00.794Z,6.70
2022-11-08T08:27:03.703Z,6.90
2022-11-08T08:32:06.617Z,7.00
2022-11-08T08:37:10.242Z,7.20
2022-11-08T08:42:13.090Z,7.30
2022-11-08T08:47:16.085Z,7.40
2022-11-08T08:52:19.021Z,7.50
2022-11-08T08:57:21.971Z,7.60
2022-11-08T09:02:24.948Z,7.60
2022-11-08T09:07:27.851Z,7.70
2022-11-08T09:12:31.007Z,7.80
2022-11-08T09:17:34.082Z,7.90
2022-11-08T09:22:38.540Z,7.90
2022-11-08T09:27:41.666Z,8.00
2022-11-08T09:33:00.471Z,8.10
2022-11-08T09:38:04.653Z,8.30
2022-11-08T09:43:40.216Z,8.40
2022-11-08T09:48:45.419Z,8.50
2022-11-08T09:53:58.612Z,8.50
2022-11-08T09:59:20.427Z,8.60
2022-11-08T10:04:26.187Z,8.70
2022-11-08T10:09:59.858Z,8.70
2022-11-08T10:15:30.990Z,8.80
2022-11-08T10:21:10.535Z,8.80
2022-11-08T10:26:27.093Z,8.80
2022-11-08T10:31:35.207Z,8.90
2022-11-08T10:36:47.638Z,9.10
2022-11-08T10:42:17.648Z,9.20
2022-11-08T10:47:29.690Z,9.30
2022-11-08T10:52:46.681Z,9.40
2022-11-08T10:57:49.731Z,9.40
2022-11-08T11:03:15.270Z,9.50
2022-11-08T11:08:19.176Z,9.50
2022-11-08T11:18:49.294Z,9.50
2022-11-08T11:23:58.582Z,9.50
2022-11-08T11:29:04.251Z,9.50
2022-11-08T11:34:19.385Z,9.50
2022-11-08T11:39:46.262Z,9.60
2022-11-08T11:45:15.643Z,9.60
2022-11-08T11:50:28.593Z,9.80
2022-11-08T11:55:43.481Z,9.80
2022-11-08T12:00:59.481Z,9.90
2022-11-08T12:06:12.435Z,9.90
2022-11-08T12:11:49.504Z,10.00
2022-11-08T12:17:32.811Z,10.20
2022-11-08T12:22:59.177Z,10.30
2022-11-08T12:28:08.925Z,10.40
2022-11-08T12:33:42.930Z,10.60
2022-11-08T12:38:59.669Z,10.80
2022-11-08T12:44:14.367Z,10.80
2022-11-08T12:49:44.352Z,10.90
2022-11-08T12:55:09.928Z,11.00
2022-11-08T13:00:20.213Z,10.90
2022-11-08T13:05:31.804Z,10.80
2022-11-08T13:10:55.592Z,10.80
2022-11-08T13:16:14.673Z,10.90
2022-11-08T13:21:34.395Z,11.00
2022-11-08T13:26:42.404Z,11.20
2022-11-08T13:31:51.234Z,11.40
2022-11-08T13:37:43.094Z,11.60
2022-11-08T13:43:07.463Z,11.70
2022-11-08T13:48:36.660Z,11.80
2022-11-08T13:53:58.385Z,11.80
2022-11-08T13:59:01.167Z,11.80
2022-11-08T14:04:30.884Z,11.70
2022-11-08T14:10:01.520Z,11.70
2022-11-08T14:15:22.261Z,11.70
2022-11-08T14:20:46.394Z,11.60
2022-11-08T14:26:23.649Z,11.40
2022-11-08T14:31:32.949Z,11.30
2022-11-08T14:36:35.995Z,11.20
2022-11-08T14:41:39.860Z,11.10
2022-11-08T14:46:42.779Z,11.00
2022-11-08T14:51:46.811Z,10.90
2022-11-08T14:56:50.446Z,10.90
2022-11-08T15:01:53.907Z,11.00
2022-11-08T15:06:59.048Z,10.90
2022-11-08T15:12:23.889Z,10.90
2022-11-08T15:17:34.605Z,10.80
2022-11-08T15:22:37.880Z,10.70
2022-11-08T15:27:56.602Z,10.70
2022-11-08T15:32:59.498Z,10.60
2022-11-08T15:38:06.788Z,10.50
2022-11-08T15:43:44.649Z,10.40
2022-11-08T15:48:59.019Z,10.40
2022-11-08T15:54:01.894Z,10.40
2022-11-08T15:59:05.011Z,10.30
2022-11-08T16:04:13.285Z,10.30
2022-11-08T16:09:16.234Z,10.30
2022-11-08T16:14:22.917Z,10.30
2022-11-08T16:19:25.981Z,10.30
2022-11-08T16:24:28.912Z,10.30
2022-11-08T16:29:34.981Z,10.20
2022-11-08T16:34:37.949Z,10.20
2022-11-08T16:39:40.828Z,10.10
2022-11-08T16:44:44.474Z,10.20
2022-11-08T16:49:51.291Z,10.20
2022-11-08T16:54:54.711Z,10.30
2022-11-08T16:59:57.611Z,10.20
2022-11-08T17:05:00.519Z,10.20
2022-11-08T17:10:03.607Z,10.20
2022-11-08T17:15:13.274Z,10.20
2022-11-08T17:20:19.984Z,10.20
2022-11-08T17:25:24.563Z,10.10
2022-11-08T17:30:27.439Z,10.10
2022-11-08T17:35:30.386Z,10.10
2022-11-08T17:40:33.579Z,10.10
2022-11-08T17:45:36.628Z,10.10
2022-11-08T17:50:39.746Z,10.10
2022-11-08T17:55:42.727Z,10.00
2022-11-08T18:00:45.676Z,9.90
2022-11-08T18:06:00.724Z,9.80
2022-11-08T18:11:04.630Z,9.80
2022-11-08T18:16:15.387Z,9.80
2022-11-08T18:21:19.726Z,9.80
2022-11-08T18:26:22.612Z,9.80
2022-11-08T18:31:26.407Z,9.80
2022-11-08T18:36:30.988Z,9.70
2022-11-08T18:41:34.140Z,9.80
2022-11-08T18:46:41.783Z,9.80
2022-11-08T18:51:51.862Z,9.80
2022-11-08T18:56:54.786Z,9.80
2022-11-08T19:01:57.693Z,9.80
2022-11-08T19:07:00.522Z,9.80
2022-11-08T19:12:06.103Z,9.80
2022-11-08T19:17:09.590Z,9.90
2022-11-08T19:22:12.429Z,9.90
2022-11-08T19:27:15.368Z,9.90
2022-11-08T19:32:18.170Z,9.90
2022-11-08T19:37:20.930Z,9.90
2022-11-08T19:42:24.040Z,9.90
2022-11-08T19:47:27.183Z,9.90
2022-11-08T19:52:30.017Z,9.90
2022-11-08T19:57:35.033Z,9.90
2022-11-08T20:02:38.990Z,10.00
2022-11-08T20:07:45.726Z,10.00
2022-11-08T20:12:48.525Z,10.00
2022-11-08T20:17:51.384Z,10.00
2022-11-08T20:22:54.235Z,10.00
2022-11-08T20:27:56.971Z,10.10
2022-11-08T20:33:00.322Z,10.10
2022-11-08T20:38:03.292Z,10.10
2022-11-08T20:43:06.207Z,10.10
2022-11-08T20:48:09.157Z,10.10
2022-11-08T20:53:11.989Z,10.10
2022-11-08T20:58:14.727Z,10.10
2022-11-08T21:03:19.055Z,10.10
2022-11-08T21:13:46.876Z,10.10
2022-11-08T21:18:49.679Z,10.10
2022-11-08T21:23:54.209Z,10.10
2022-11-08T21:28:56.959Z,10.10
2022-11-08T21:34:00.493Z,10.10
2022-11-08T21:39:03.406Z,10.10
2022-11-08T21:44:06.250Z,10.00
2022-11-08T21:49:13.445Z,10.00
2022-11-08T21:54:16.310Z,10.00
2022-11-08T21:59:19.161Z,10.00
2022-11-08T22:04:22.123Z,10.00
2022-11-08T22:09:24.961Z,10.00
2022-11-08T22:14:27.789Z,10.00
2022-11-08T22:19:30.948Z,10.00
2022-11-08T22:24:33.998Z,10.00
2022-11-08T22:29:36.846Z,10.00
2022-11-08T22:34:40.065Z,10.00
2022-11-08T22:39:42.903Z,10.00
2022-11-08T22:44:45.869Z,10.00
2022-11-08T22:49:48.830Z,10.00
2022-11-08T22:54:51.766Z,9.90
2022-11-08T22:59:54.634Z,10.00
2022-11-08T23:04:57.454Z,10.00
2022-11-08T23:10:00.362Z,10.10
2022-11-08T23:15:22.300Z,10.10
2022-11-08T23:20:43.709Z,10.10
2022-11-08T23:25:46.600Z,10.10
2022-11-08T23:31:07.800Z,10.00
2022-11-08T23:36:15.171Z,10.10
2022-11-08T23:41:36.253Z,10.10
2022-11-08T23:46:39.411Z,10.10
2022-11-08T23:51:42.211Z,10.10
2022-11-08T23:56:45.237Z,10.10
